createdAt,value
2023-03-16T00:01:38.159Z,98406.39
2023-03-16T00:04:41.261Z,98404.79
2023-03-16T00:07:44.409Z,98409.03
2023-03-16T00:10:48.060Z,98412.10
2023-03-16T00:13:51.639Z,98411.26
2023-03-16T00:16:54.765Z,98413.48
2023-03-16T00:19:58.030Z,98414.16
2023-03-16T00:23:02.723Z,98414.17
2023-03-16T00:26:08.218Z,98416.86
2023-03-16T00:29:12.027Z,98419.17
2023-03-16T00:32:20.800Z,98420.40
2023-03-16T00:35:25.509Z,98417.82
2023-03-16T00:38:31.265Z,98417.19
2023-03-16T00:41:38.138Z,98413.10
2023-03-16T00:44:42.138Z,98419.08
2023-03-16T00:47:45.322Z,98417.47
2023-03-16T00:50:49.511Z,98419.35
2023-03-16T00:53:52.671Z,98421.05
2023-03-16T00:56:56.301Z,98419.55
2023-03-16T01:00:00.184Z,98424.95
2023-03-16T01:03:03.557Z,98420.57
2023-03-16T01:06:12.898Z,98418.17
2023-03-16T01:09:16.074Z,98420.81
2023-03-16T01:12:20.186Z,98417.53
2023-03-16T01:15:23.230Z,98418.61
2023-03-16T01:18:27.850Z,98420.42
2023-03-16T01:21:33.725Z,98429.07
2023-03-16T01:24:37.790Z,98424.73
2023-03-16T01:27:43.116Z,98430.68
2023-03-16T01:30:46.267Z,98431.30
2023-03-16T01:33:51.318Z,98431.28
2023-03-16T01:36:57.926Z,98432.05
2023-03-16T01:40:06.876Z,98436.44
2023-03-16T01:43:11.669Z,98436.45
2023-03-16T01:46:24.056Z,98432.78
2023-03-16T01:49:33.506Z,98437.25
2023-03-16T01:52:38.685Z,98434.39
2023-03-16T01:55:42.631Z,98435.71
2023-03-16T01:58:46.980Z,98435.54
2023-03-16T02:01:52.036Z,98438.55
2023-03-16T02:05:02.115Z,98440.64
2023-03-16T02:08:06.690Z,98442.13
2023-03-16T02:11:10.385Z,98445.94
2023-03-16T02:14:21.469Z,98450.79
2023-03-16T02:17:27.887Z,98454.67
2023-03-16T02:20:42.657Z,98454.36
2023-03-16T02:23:47.097Z,98462.38
2023-03-16T02:26:57.660Z,98466.75
2023-03-16T02:30:08.354Z,98473.26
2023-03-16T02:33:21.323Z,98474.13
2023-03-16T02:36:24.850Z,98479.36
2023-03-16T02:39:28.321Z,98486.86
2023-03-16T02:42:31.847Z,98491.71
2023-03-16T02:45:55.059Z,98493.19
2023-03-16T02:49:17.828Z,98495.81
2023-03-16T02:52:21.633Z,98502.50
2023-03-16T02:55:24.807Z,98504.20
2023-03-16T02:58:29.772Z,98508.05
2023-03-16T03:01:34.946Z,98509.26
2023-03-16T03:04:38.302Z,98510.69
2023-03-16T03:07:42.751Z,98518.86
2023-03-16T03:10:46.266Z,98521.93
2023-03-16T03:13:49.772Z,98522.77
2023-03-16T03:16:56.036Z,98524.73
2023-03-16T03:20:02.409Z,98524.59
2023-03-16T03:23:05.671Z,98528.29
2023-03-16T03:26:08.774Z,98533.13
2023-03-16T03:29:12.646Z,98536.02
2023-03-16T03:32:16.558Z,98540.24
2023-03-16T03:35:21.372Z,98539.68
2023-03-16T03:38:25.914Z,98548.14
2023-03-16T03:41:30.601Z,98553.90
2023-03-16T03:44:37.143Z,98563.16
2023-03-16T03:47:41.477Z,98562.50
2023-03-16T03:50:46.170Z,98564.77
2023-03-16T03:53:59.942Z,98563.58
2023-03-16T03:57:21.948Z,98569.45
2023-03-16T04:00:25.892Z,98568.87
2023-03-16T04:03:29.326Z,98567.48
2023-03-16T04:06:32.588Z,98573.69
2023-03-16T04:09:36.214Z,98572.98
2023-03-16T04:12:39.522Z,98568.91
2023-03-16T04:15:47.022Z,98564.73
2023-03-16T04:18:57.878Z,98568.10
2023-03-16T04:22:01.628Z,98567.79
2023-03-16T04:25:05.285Z,98568.04
2023-03-16T04:28:09.022Z,98566.38
2023-03-16T04:31:14.234Z,98568.48
2023-03-16T04:34:24.930Z,98571.23
2023-03-16T04:37:29.977Z,98573.17
2023-03-16T04:40:33.159Z,98575.70
2023-03-16T04:43:40.942Z,98576.84
2023-03-16T04:46:53.763Z,98577.60
2023-03-16T04:49:57.440Z,98580.52
2023-03-16T04:53:02.187Z,98584.25
2023-03-16T04:56:07.518Z,98584.98
2023-03-16T04:59:11.950Z,98586.02
2023-03-16T05:02:22.467Z,98587.89
2023-03-16T05:05:26.048Z,98596.60
2023-03-16T05:08:29.194Z,98604.02
2023-03-16T05:11:32.337Z,98610.31
2023-03-16T05:14:36.358Z,98614.70
2023-03-16T05:17:57.923Z,98615.74
2023-03-16T05:21:01.984Z,98619.73
2023-03-16T05:24:12.499Z,98621.06
2023-03-16T05:27:16.041Z,98623.54
2023-03-16T05:30:20.152Z,98625.55
2023-03-16T05:33:23.625Z,98629.59
2023-03-16T05:36:31.386Z,98625.71
2023-03-16T05:39:41.166Z,98626.64
2023-03-16T05:42:49.379Z,98630.07
2023-03-16T05:45:53.174Z,98634.08
2023-03-16T05:48:56.585Z,98636.48
2023-03-16T05:52:00.512Z,98638.00
2023-03-16T05:55:05.958Z,98643.56
2023-03-16T05:58:09.256Z,98645.02
2023-03-16T06:01:13.524Z,98651.12
2023-03-16T06:04:17.999Z,98655.05
2023-03-16T06:07:21.358Z,98659.39
2023-03-16T06:10:26.840Z,98657.17
2023-03-16T06:13:30.817Z,98663.27
2023-03-16T06:16:34.173Z,98665.05
2023-03-16T06:19:37.621Z,98678.02
2023-03-16T06:22:42.497Z,98678.99
2023-03-16T06:25:50.244Z,98677.31
2023-03-16T06:28:54.629Z,98676.98
2023-03-16T06:31:58.208Z,98682.56
2023-03-16T06:35:03.555Z,98681.52
2023-03-16T06:38:07.388Z,98683.79
2023-03-16T06:41:42.910Z,98682.08
2023-03-16T06:44:47.899Z,98691.86
2023-03-16T06:47:51.610Z,98695.17
2023-03-16T06:50:55.241Z,98697.56
2023-03-16T06:54:01.533Z,98697.08
2023-03-16T06:57:05.832Z,98696.43
2023-03-16T07:00:15.471Z,98699.36
2023-03-16T07:03:19.474Z,98702.00
2023-03-16T07:06:27.607Z,98706.67
2023-03-16T07:09:31.685Z,98709.34
2023-03-16T07:12:35.089Z,98711.08
2023-03-16T07:15:38.415Z,98713.05
2023-03-16T07:18:44.475Z,98713.88
2023-03-16T07:21:49.481Z,98714.95
2023-03-16T07:24:57.521Z,98713.27
2023-03-16T07:28:01.947Z,98715.32
2023-03-16T07:31:09.577Z,98715.55
2023-03-16T07:34:15.186Z,98713.48
2023-03-16T07:37:25.481Z,98717.16
2023-03-16T07:40:30.973Z,98721.52
2023-03-16T07:43:40.527Z,98721.38
2023-03-16T07:46:45.819Z,98727.77
2023-03-16T07:49:48.946Z,98728.02
2023-03-16T07:52:52.329Z,98733.54
2023-03-16T07:55:55.688Z,98733.36
2023-03-16T07:58:58.879Z,98729.95
2023-03-16T08:02:02.282Z,98728.13
2023-03-16T08:05:06.121Z,98731.02
2023-03-16T08:08:10.210Z,98730.36
2023-03-16T08:11:14.796Z,98732.61
2023-03-16T08:14:24.211Z,98735.69
2023-03-16T08:17:37.813Z,98741.69
2023-03-16T08:20:42.412Z,98739.34
2023-03-16T08:23:49.200Z,98742.09
2023-03-16T08:26:53.442Z,98744.52
2023-03-16T08:29:56.726Z,98747.10
2023-03-16T08:33:03.373Z,98743.48
2023-03-16T08:36:08.716Z,98748.91
2023-03-16T08:39:12.227Z,98750.84
2023-03-16T08:42:20.358Z,98749.23
2023-03-16T08:45:28.718Z,98748.16
2023-03-16T08:48:34.723Z,98752.30
2023-03-16T08:51:38.067Z,98749.86
2023-03-16T08:54:49.776Z,98755.30
2023-03-16T08:58:00.085Z,98758.42
2023-03-16T09:01:05.836Z,98765.38
2023-03-16T09:04:09.676Z,98765.67
2023-03-16T09:07:13.632Z,98770.33
2023-03-16T09:10:17.469Z,98772.94
2023-03-16T09:13:20.703Z,98774.41
2023-03-16T09:16:25.917Z,98777.55
2023-03-16T09:19:34.836Z,98775.71
2023-03-16T09:22:44.213Z,98775.02
2023-03-16T09:25:48.201Z,98775.58
2023-03-16T09:28:51.581Z,98778.52
2023-03-16T09:31:54.957Z,98779.14
2023-03-16T09:34:58.248Z,98786.11
2023-03-16T09:38:05.938Z,98781.40
2023-03-16T09:41:25.375Z,98779.86
2023-03-16T09:44:50.562Z,98789.27
2023-03-16T09:47:58.272Z,98790.59
2023-03-16T09:51:05.605Z,98784.65
2023-03-16T09:54:29.489Z,98781.23
2023-03-16T09:57:36.868Z,98783.29
2023-03-16T10:01:00.860Z,98781.52
2023-03-16T10:04:07.649Z,98789.52
2023-03-16T10:07:11.449Z,98785.66
2023-03-16T10:10:18.406Z,98791.44
2023-03-16T10:13:40.450Z,98790.40
2023-03-16T10:17:01.614Z,98784.35
2023-03-16T10:20:18.717Z,98790.42
2023-03-16T10:23:24.760Z,98798.86
2023-03-16T10:26:39.237Z,98800.17
2023-03-16T10:29:42.304Z,98798.45
2023-03-16T10:32:46.112Z,98801.73
2023-03-16T10:36:05.757Z,98799.78
2023-03-16T10:39:12.582Z,98801.08
2023-03-16T10:42:18.631Z,98800.56
2023-03-16T10:45:34.483Z,98788.61
2023-03-16T10:48:39.164Z,98787.38
2023-03-16T10:51:44.342Z,98792.52
2023-03-16T10:55:00.001Z,98800.70
2023-03-16T10:58:04.282Z,98801.00
2023-03-16T11:01:21.775Z,98807.42
2023-03-16T11:04:25.714Z,98804.77
2023-03-16T11:07:28.910Z,98806.42
2023-03-16T11:10:46.089Z,98801.17
2023-03-16T11:14:00.173Z,98797.45
2023-03-16T11:17:10.839Z,98789.92
2023-03-16T11:20:24.030Z,98789.21
2023-03-16T11:23:34.375Z,98789.04
2023-03-16T11:26:42.999Z,98785.84
2023-03-16T11:29:59.608Z,98785.06
2023-03-16T11:33:04.213Z,98785.23
2023-03-16T11:36:31.716Z,98782.30
2023-03-16T11:39:42.978Z,98776.51
2023-03-16T11:42:49.137Z,98775.17
2023-03-16T11:46:02.858Z,98772.49
2023-03-16T11:49:12.189Z,98765.01
2023-03-16T11:52:33.440Z,98767.30
2023-03-16T11:56:09.318Z,98771.52
2023-03-16T11:59:31.081Z,98769.98
2023-03-16T12:02:57.392Z,98771.47
2023-03-16T12:06:16.876Z,98769.29
2023-03-16T12:09:39.456Z,98773.27
2023-03-16T12:12:56.131Z,98776.09
2023-03-16T12:16:20.044Z,98772.48
2023-03-16T12:19:32.264Z,98770.39
2023-03-16T12:22:42.250Z,98764.77
2023-03-16T12:25:47.742Z,98760.31
2023-03-16T12:28:53.174Z,98764.66
2023-03-16T12:32:09.888Z,98764.23
2023-03-16T12:35:34.151Z,98760.16
2023-03-16T12:38:54.363Z,98762.67
2023-03-16T12:42:06.320Z,98761.80
2023-03-16T12:45:28.342Z,98757.11
2023-03-16T12:48:37.580Z,98756.45
2023-03-16T12:51:43.531Z,98757.05
2023-03-16T12:54:52.177Z,98758.68
2023-03-16T12:58:02.241Z,98755.42
2023-03-16T13:01:11.365Z,98759.33
2023-03-16T13:04:21.577Z,98758.40
2023-03-16T13:07:28.479Z,98762.36
2023-03-16T13:10:31.732Z,98766.27
2023-03-16T13:13:36.392Z,98768.70
2023-03-16T13:16:41.033Z,98770.84
2023-03-16T13:19:57.784Z,98767.16
2023-03-16T13:23:22.462Z,98765.04
2023-03-16T13:26:28.358Z,98771.20
2023-03-16T13:29:33.506Z,98769.02
2023-03-16T13:32:38.839Z,98768.23
2023-03-16T13:35:42.235Z,98772.50
2023-03-16T13:38:58.640Z,98768.86
2023-03-16T13:42:12.816Z,98769.50
2023-03-16T13:45:21.344Z,98770.45
2023-03-16T13:48:25.211Z,98770.27
2023-03-16T13:51:33.232Z,98767.25
2023-03-16T13:54:37.345Z,98764.48
2023-03-16T13:57:44.132Z,98764.70
2023-03-16T14:00:47.296Z,98762.27
2023-03-16T14:03:51.134Z,98766.45
2023-03-16T14:07:03.889Z,98765.41
2023-03-16T14:10:12.312Z,98765.98
2023-03-16T14:13:33.013Z,98763.23
2023-03-16T14:16:36.335Z,98762.73
2023-03-16T14:19:46.724Z,98765.61
2023-03-16T14:22:54.053Z,98763.59
2023-03-16T14:25:57.429Z,98763.36
2023-03-16T14:29:18.480Z,98761.77
2023-03-16T14:32:30.392Z,98757.73
2023-03-16T14:35:41.411Z,98758.89
2023-03-16T14:38:48.866Z,98759.77
2023-03-16T14:41:52.443Z,98764.12
2023-03-16T14:45:00.510Z,98769.42
2023-03-16T14:48:08.733Z,98764.59
2023-03-16T14:51:14.741Z,98761.41
2023-03-16T14:54:21.867Z,98764.89
2023-03-16T14:57:28.751Z,98765.05
2023-03-16T15:00:37.175Z,98769.63
2023-03-16T15:03:46.649Z,98766.94
2023-03-16T15:06:50.076Z,98767.73
2023-03-16T15:09:55.375Z,98771.05
2023-03-16T15:13:06.162Z,98772.95
2023-03-16T15:16:14.207Z,98773.30
2023-03-16T15:19:17.436Z,98778.40
2023-03-16T15:22:39.355Z,98772.55
2023-03-16T15:25:48.232Z,98766.57
2023-03-16T15:28:51.249Z,98769.94
2023-03-16T15:31:54.750Z,98774.06
2023-03-16T15:34:58.312Z,98771.88
2023-03-16T15:38:05.072Z,98774.73
2023-03-16T15:41:11.733Z,98775.86
2023-03-16T15:44:14.958Z,98778.48
2023-03-16T15:47:17.998Z,98775.55
2023-03-16T15:50:24.816Z,98777.35
2023-03-16T15:53:40.077Z,98775.21
2023-03-16T15:56:53.824Z,98779.57
2023-03-16T16:00:00.214Z,98785.86
2023-03-16T16:03:05.496Z,98786.65
2023-03-16T16:06:11.781Z,98788.50
2023-03-16T16:09:15.788Z,98793.31
2023-03-16T16:12:21.432Z,98791.56
2023-03-16T16:15:38.326Z,98792.42
2023-03-16T16:18:41.889Z,98797.54
2023-03-16T16:21:46.443Z,98798.98
2023-03-16T16:24:49.377Z,98795.23
2023-03-16T16:27:52.395Z,98803.69
2023-03-16T16:30:56.815Z,98807.66
2023-03-16T16:33:59.984Z,98807.48
2023-03-16T16:37:03.073Z,98810.56
2023-03-16T16:40:06.631Z,98810.61
2023-03-16T16:43:14.239Z,98814.80
2023-03-16T16:46:24.050Z,98816.84
2023-03-16T16:49:30.653Z,98815.61
2023-03-16T16:52:33.699Z,98822.83
2023-03-16T16:55:36.747Z,98821.02
2023-03-16T16:58:40.692Z,98817.82
2023-03-16T17:01:47.410Z,98822.89
2023-03-16T17:04:53.715Z,98821.40
2023-03-16T17:07:56.728Z,98818.90
2023-03-16T17:11:00.092Z,98823.08
2023-03-16T17:14:05.987Z,98822.39
2023-03-16T17:17:17.568Z,98826.30
2023-03-16T17:20:25.461Z,98832.95
2023-03-16T17:23:35.121Z,98835.06
2023-03-16T17:26:43.889Z,98839.31
2023-03-16T17:29:46.969Z,98837.96
2023-03-16T17:32:52.050Z,98840.91
2023-03-16T17:35:55.243Z,98837.99
2023-03-16T17:39:00.212Z,98834.67
2023-03-16T17:42:13.791Z,98834.08
2023-03-16T17:45:24.200Z,98835.12
2023-03-16T17:48:27.186Z,98834.46
2023-03-16T17:51:32.345Z,98841.63
2023-03-16T17:54:35.337Z,98843.46
2023-03-16T17:57:38.684Z,98842.46
2023-03-16T18:00:42.452Z,98848.19
2023-03-16T18:03:46.185Z,98849.36
2023-03-16T18:06:49.724Z,98850.47
2023-03-16T18:09:53.163Z,98848.30
2023-03-16T18:13:00.792Z,98851.89
2023-03-16T18:16:06.151Z,98851.30
2023-03-16T18:19:21.546Z,98851.73
2023-03-16T18:22:25.053Z,98852.08
2023-03-16T18:25:30.524Z,98853.20
2023-03-16T18:28:34.823Z,98855.50
2023-03-16T18:31:37.917Z,98858.48
2023-03-16T18:34:42.186Z,98857.51
2023-03-16T18:37:45.295Z,98862.54
2023-03-16T18:40:48.583Z,98865.23
2023-03-16T18:43:55.066Z,98865.95
2023-03-16T18:47:02.973Z,98866.34
2023-03-16T18:50:28.781Z,98869.84
2023-03-16T18:53:32.799Z,98868.16
2023-03-16T18:56:43.171Z,98871.70
2023-03-16T18:59:47.899Z,98875.00
2023-03-16T19:02:58.904Z,98873.86
2023-03-16T19:06:02.206Z,98876.48
2023-03-16T19:09:13.713Z,98878.06
2023-03-16T19:12:18.322Z,98877.69
2023-03-16T19:15:34.002Z,98880.02
2023-03-16T19:18:45.846Z,98882.65
2023-03-16T19:21:51.839Z,98886.11
2023-03-16T19:24:56.115Z,98886.52
2023-03-16T19:28:00.144Z,98892.45
2023-03-16T19:31:20.457Z,98892.27
2023-03-16T19:34:24.033Z,98894.17
2023-03-16T19:37:30.080Z,98896.89
2023-03-16T19:40:33.072Z,98899.61
2023-03-16T19:43:36.191Z,98899.89
2023-03-16T19:46:40.059Z,98897.97
2023-03-16T19:49:43.051Z,98896.77
2023-03-16T19:52:46.996Z,98896.27
2023-03-16T19:55:52.317Z,98901.98
2023-03-16T19:58:56.303Z,98906.60
2023-03-16T20:02:00.150Z,98904.03
2023-03-16T20:05:03.695Z,98906.48
2023-03-16T20:08:28.010Z,98902.41
2023-03-16T20:11:32.389Z,98902.97
2023-03-16T20:14:35.458Z,98903.14
2023-03-16T20:17:38.595Z,98902.08
2023-03-16T20:20:43.350Z,98902.48
2023-03-16T20:23:46.400Z,98897.90
2023-03-16T20:26:51.445Z,98901.02
2023-03-16T20:29:54.538Z,98910.33
2023-03-16T20:32:57.724Z,98908.43
2023-03-16T20:36:01.251Z,98910.83
2023-03-16T20:39:04.357Z,98909.23
2023-03-16T20:42:16.913Z,98909.73
2023-03-16T20:45:26.183Z,98913.60
2023-03-16T20:48:29.467Z,98909.21
2023-03-16T20:51:32.863Z,98913.32
2023-03-16T20:54:35.956Z,98911.66
2023-03-16T20:57:40.200Z,98912.80
2023-03-16T21:00:44.394Z,98911.81
2023-03-16T21:03:58.628Z,98914.96
2023-03-16T21:07:01.587Z,98912.70
2023-03-16T21:10:05.068Z,98914.70
2023-03-16T21:13:17.469Z,98910.26
2023-03-16T21:16:21.820Z,98911.09
2023-03-16T21:19:25.104Z,98914.63
2023-03-16T21:22:31.274Z,98911.30
2023-03-16T21:25:40.559Z,98913.64
2023-03-16T21:28:46.524Z,98918.84
2023-03-16T21:31:49.913Z,98917.09
2023-03-16T21:34:54.665Z,98918.16
2023-03-16T21:37:58.153Z,98920.88
2023-03-16T21:41:01.273Z,98921.39
2023-03-16T21:44:04.325Z,98921.42
2023-03-16T21:47:26.213Z,98920.81
2023-03-16T21:50:33.412Z,98917.17
2023-03-16T21:53:36.440Z,98916.26
2023-03-16T21:56:39.416Z,98913.04
2023-03-16T21:59:42.523Z,98906.23
2023-03-16T22:02:47.596Z,98903.32
2023-03-16T22:05:51.180Z,98898.21
2023-03-16T22:08:55.618Z,98897.66
2023-03-16T22:11:58.642Z,98900.25
2023-03-16T22:15:01.750Z,98896.23
2023-03-16T22:18:08.802Z,98893.64
2023-03-16T22:21:30.026Z,98890.39
2023-03-16T22:24:35.834Z,98887.62
2023-03-16T22:27:39.050Z,98889.95
2023-03-16T22:30:42.934Z,98886.02
2023-03-16T22:33:48.742Z,98881.96
2023-03-16T22:36:52.155Z,98879.96
2023-03-16T22:39:57.408Z,98879.08
2023-03-16T22:43:04.546Z,98877.73
2023-03-16T22:46:23.420Z,98872.33
2023-03-16T22:49:28.598Z,98867.13
2023-03-16T22:52:35.231Z,98868.66
2023-03-16T22:55:40.332Z,98863.42
2023-03-16T22:58:51.330Z,98859.14
2023-03-16T23:01:54.416Z,98858.02
2023-03-16T23:04:57.642Z,98861.92
2023-03-16T23:08:02.655Z,98863.09
2023-03-16T23:11:05.748Z,98871.42
2023-03-16T23:14:23.684Z,98871.55
2023-03-16T23:17:27.086Z,98872.50
2023-03-16T23:20:33.558Z,98877.13
2023-03-16T23:23:36.624Z,98879.42
2023-03-16T23:26:39.720Z,98877.90
2023-03-16T23:29:42.857Z,98884.85
2023-03-16T23:32:45.952Z,98886.08
2023-03-16T23:35:48.986Z,98887.42
2023-03-16T23:38:52.237Z,98889.25
2023-03-16T23:41:56.338Z,98886.44
2023-03-16T23:45:07.760Z,98887.27
2023-03-16T23:48:15.415Z,98887.77
2023-03-16T23:51:25.814Z,98890.53
2023-03-16T23:54:31.696Z,98883.83
2023-03-16T23:57:34.739Z,98880.23
